sensor_id;sensor_type;location;lat;lon;timestamp;pressure;altitude;pressure_sealevel;temperature;humidity
51530;BME280;37613;51.788;21.582;2023-07-28T00:03:56;99378.31;;;12.76;80.52
51530;BME280;37613;51.788;21.582;2023-07-28T00:07:59;99377.20;;;12.76;81.10
51530;BME280;37613;51.788;21.582;2023-07-28T00:12:01;99376.40;;;12.77;81.63
51530;BME280;37613;51.788;21.582;2023-07-28T00:16:04;99373.62;;;12.76;81.79
51530;BME280;37613;51.788;21.582;2023-07-28T00:20:08;99374.42;;;12.76;81.74
51530;BME280;37613;51.788;21.582;2023-07-28T00:24:10;99367.52;;;12.76;81.74
51530;BME280;37613;51.788;21.582;2023-07-28T00:28:12;99362.09;;;12.78;81.99
51530;BME280;37613;51.788;21.582;2023-07-28T00:32:15;99357.16;;;12.82;82.23
51530;BME280;37613;51.788;21.582;2023-07-28T00:36:20;99356.38;;;12.85;82.17
51530;BME280;37613;51.788;21.582;2023-07-28T00:40:22;99352.19;;;12.88;82.28
51530;BME280;37613;51.788;21.582;2023-07-28T00:44:25;99344.79;;;12.89;82.32
51530;BME280;37613;51.788;21.582;2023-07-28T00:48:27;99344.02;;;12.92;82.60
51530;BME280;37613;51.788;21.582;2023-07-28T00:52:29;99338.71;;;12.95;83.18
51530;BME280;37613;51.788;21.582;2023-07-28T00:56:31;99338.92;;;12.96;83.22
51530;BME280;37613;51.788;21.582;2023-07-28T01:00:33;99333.48;;;12.97;83.37
51530;BME280;37613;51.788;21.582;2023-07-28T01:04:35;99330.66;;;12.99;83.16
51530;BME280;37613;51.788;21.582;2023-07-28T01:12:49;99320.27;;;13.09;83.95
51530;BME280;37613;51.788;21.582;2023-07-28T01:16:51;99322.67;;;13.15;83.86
51530;BME280;37613;51.788;21.582;2023-07-28T01:20:56;99327.23;;;13.21;83.90
51530;BME280;37613;51.788;21.582;2023-07-28T01:25:20;99319.06;;;13.24;84.13
51530;BME280;37613;51.788;21.582;2023-07-28T01:29:24;99308.61;;;13.24;84.38
51530;BME280;37613;51.788;21.582;2023-07-28T01:33:26;99312.77;;;13.22;84.04
51530;BME280;37613;51.788;21.582;2023-07-28T01:37:29;99309.41;;;13.24;84.45
51530;BME280;37613;51.788;21.582;2023-07-28T01:41:31;99303.94;;;13.23;84.59
51530;BME280;37613;51.788;21.582;2023-07-28T01:45:33;99300.94;;;13.22;84.95
51530;BME280;37613;51.788;21.582;2023-07-28T01:49:35;99300.21;;;13.23;85.10
51530;BME280;37613;51.788;21.582;2023-07-28T01:53:37;99301.28;;;13.25;84.97
51530;BME280;37613;51.788;21.582;2023-07-28T01:57:40;99295.75;;;13.30;84.99
51530;BME280;37613;51.788;21.582;2023-07-28T02:01:42;99291.77;;;13.34;85.24
51530;BME280;37613;51.788;21.582;2023-07-28T02:05:45;99292.98;;;13.36;85.25
51530;BME280;37613;51.788;21.582;2023-07-28T02:09:47;99294.90;;;13.42;85.34
51530;BME280;37613;51.788;21.582;2023-07-28T02:13:48;99291.96;;;13.48;85.41
51530;BME280;37613;51.788;21.582;2023-07-28T02:17:52;99288.11;;;13.55;85.34
51530;BME280;37613;51.788;21.582;2023-07-28T02:21:54;99285.26;;;13.61;85.14
51530;BME280;37613;51.788;21.582;2023-07-28T02:25:56;99280.94;;;13.65;85.34
51530;BME280;37613;51.788;21.582;2023-07-28T02:29:58;99279.83;;;13.71;85.19
51530;BME280;37613;51.788;21.582;2023-07-28T02:34:00;99279.20;;;13.76;85.14
51530;BME280;37613;51.788;21.582;2023-07-28T02:38:02;99276.54;;;13.81;85.21
51530;BME280;37613;51.788;21.582;2023-07-28T02:42:05;99274.40;;;13.89;85.64
51530;BME280;37613;51.788;21.582;2023-07-28T02:46:10;99265.56;;;13.95;85.23
51530;BME280;37613;51.788;21.582;2023-07-28T02:50:13;99267.13;;;13.99;85.37
51530;BME280;37613;51.788;21.582;2023-07-28T02:54:15;99266.65;;;14.02;85.42
51530;BME280;37613;51.788;21.582;2023-07-28T02:58:16;99269.29;;;14.04;85.35
51530;BME280;37613;51.788;21.582;2023-07-28T03:02:18;99263.16;;;14.07;85.47
51530;BME280;37613;51.788;21.582;2023-07-28T03:06:21;99265.45;;;14.07;85.42
51530;BME280;37613;51.788;21.582;2023-07-28T03:10:23;99267.67;;;14.07;85.25
51530;BME280;37613;51.788;21.582;2023-07-28T03:14:25;99276.73;;;14.07;85.29
51530;BME280;37613;51.788;21.582;2023-07-28T03:18:27;99277.59;;;14.07;85.33
51530;BME280;37613;51.788;21.582;2023-07-28T03:22:28;99270.12;;;14.08;85.33
51530;BME280;37613;51.788;21.582;2023-07-28T03:26:32;99272.98;;;14.08;85.28
51530;BME280;37613;51.788;21.582;2023-07-28T03:30:34;99269.89;;;14.07;85.46
51530;BME280;37613;51.788;21.582;2023-07-28T03:34:38;99269.32;;;14.08;85.46
51530;BME280;37613;51.788;21.582;2023-07-28T03:38:40;99267.02;;;14.08;85.50
51530;BME280;37613;51.788;21.582;2023-07-28T03:42:42;99264.15;;;14.08;85.60
51530;BME280;37613;51.788;21.582;2023-07-28T03:46:44;99264.30;;;14.09;85.59
51530;BME280;37613;51.788;21.582;2023-07-28T03:50:47;99258.50;;;14.09;85.72
51530;BME280;37613;51.788;21.582;2023-07-28T03:54:49;99250.48;;;14.09;85.80
51530;BME280;37613;51.788;21.582;2023-07-28T03:58:51;99249.91;;;14.10;85.77
51530;BME280;37613;51.788;21.582;2023-07-28T04:02:53;99246.30;;;14.10;85.75
51530;BME280;37613;51.788;21.582;2023-07-28T04:06:55;99238.29;;;14.15;85.78
51530;BME280;37613;51.788;21.582;2023-07-28T04:10:57;99236.98;;;14.19;85.79
51530;BME280;37613;51.788;21.582;2023-07-28T04:14:59;99244.26;;;14.23;85.80
51530;BME280;37613;51.788;21.582;2023-07-28T04:19:01;99241.00;;;14.28;85.86
51530;BME280;37613;51.788;21.582;2023-07-28T04:23:03;99232.84;;;14.33;85.93
51530;BME280;37613;51.788;21.582;2023-07-28T04:27:06;99227.98;;;14.38;85.84
51530;BME280;37613;51.788;21.582;2023-07-28T04:31:12;99224.16;;;14.43;85.72
51530;BME280;37613;51.788;21.582;2023-07-28T04:35:14;99226.45;;;14.49;85.76
51530;BME280;37613;51.788;21.582;2023-07-28T04:39:16;99232.64;;;14.55;85.88
51530;BME280;37613;51.788;21.582;2023-07-28T04:43:18;99231.52;;;14.56;85.73
51530;BME280;37613;51.788;21.582;2023-07-28T04:47:20;99228.75;;;14.58;85.85
51530;BME280;37613;51.788;21.582;2023-07-28T04:51:25;99231.82;;;14.61;85.73
51530;BME280;37613;51.788;21.582;2023-07-28T04:55:27;99231.77;;;14.65;85.76
51530;BME280;37613;51.788;21.582;2023-07-28T04:59:28;99236.55;;;14.70;85.84
51530;BME280;37613;51.788;21.582;2023-07-28T05:03:30;99239.48;;;14.75;85.90
51530;BME280;37613;51.788;21.582;2023-07-28T05:07:32;99230.77;;;14.76;86.03
51530;BME280;37613;51.788;21.582;2023-07-28T05:11:34;99233.73;;;14.86;86.09
51530;BME280;37613;51.788;21.582;2023-07-28T05:15:36;99230.44;;;14.91;86.09
51530;BME280;37613;51.788;21.582;2023-07-28T05:19:38;99223.14;;;14.98;86.25
51530;BME280;37613;51.788;21.582;2023-07-28T05:23:40;99221.59;;;15.06;86.56
51530;BME280;37613;51.788;21.582;2023-07-28T05:27:45;99221.77;;;15.15;86.75
51530;BME280;37613;51.788;21.582;2023-07-28T05:31:47;99218.08;;;15.25;86.76
51530;BME280;37613;51.788;21.582;2023-07-28T05:36:02;99216.80;;;15.34;86.82
51530;BME280;37613;51.788;21.582;2023-07-28T05:40:05;99220.05;;;15.46;86.74
51530;BME280;37613;51.788;21.582;2023-07-28T05:44:07;99211.83;;;15.53;86.75
51530;BME280;37613;51.788;21.582;2023-07-28T05:48:09;99204.57;;;15.61;86.80
51530;BME280;37613;51.788;21.582;2023-07-28T05:52:11;99199.43;;;15.69;86.79
51530;BME280;37613;51.788;21.582;2023-07-28T05:56:13;99193.03;;;15.76;86.68
51530;BME280;37613;51.788;21.582;2023-07-28T06:00:15;99188.73;;;15.82;86.76
51530;BME280;37613;51.788;21.582;2023-07-28T06:04:18;99189.97;;;15.85;86.61
51530;BME280;37613;51.788;21.582;2023-07-28T06:08:20;99183.43;;;15.94;86.66
51530;BME280;37613;51.788;21.582;2023-07-28T06:12:22;99180.84;;;15.99;86.34
51530;BME280;37613;51.788;21.582;2023-07-28T06:16:24;99182.07;;;16.03;86.53
51530;BME280;37613;51.788;21.582;2023-07-28T06:20:26;99184.03;;;16.09;86.39
51530;BME280;37613;51.788;21.582;2023-07-28T06:24:29;99187.55;;;16.13;86.33
51530;BME280;37613;51.788;21.582;2023-07-28T06:28:32;99189.09;;;16.19;86.46
51530;BME280;37613;51.788;21.582;2023-07-28T06:32:34;99188.13;;;16.23;86.42
51530;BME280;37613;51.788;21.582;2023-07-28T06:36:36;99189.77;;;16.22;86.24
51530;BME280;37613;51.788;21.582;2023-07-28T06:40:37;99196.80;;;16.22;86.10
51530;BME280;37613;51.788;21.582;2023-07-28T06:44:39;99202.88;;;16.21;86.21
51530;BME280;37613;51.788;21.582;2023-07-28T06:48:41;99209.91;;;16.21;86.40
51530;BME280;37613;51.788;21.582;2023-07-28T06:52:46;99210.96;;;16.22;86.37
51530;BME280;37613;51.788;21.582;2023-07-28T06:56:49;99211.52;;;16.24;86.49
51530;BME280;37613;51.788;21.582;2023-07-28T07:00:51;99211.95;;;16.25;86.61
51530;BME280;37613;51.788;21.582;2023-07-28T07:04:53;99215.27;;;16.24;86.60
51530;BME280;37613;51.788;21.582;2023-07-28T07:08:55;99221.72;;;16.20;86.76
51530;BME280;37613;51.788;21.582;2023-07-28T07:12:57;99220.66;;;16.19;86.87
51530;BME280;37613;51.788;21.582;2023-07-28T07:16:59;99223.83;;;16.17;87.00
51530;BME280;37613;51.788;21.582;2023-07-28T07:21:02;99220.29;;;16.09;87.21
51530;BME280;37613;51.788;21.582;2023-07-28T07:25:05;99215.05;;;16.03;87.41
51530;BME280;37613;51.788;21.582;2023-07-28T07:29:08;99223.02;;;15.93;88.13
51530;BME280;37613;51.788;21.582;2023-07-28T07:33:14;99218.65;;;15.79;88.10
51530;BME280;37613;51.788;21.582;2023-07-28T07:37:16;99213.30;;;15.71;89.04
51530;BME280;37613;51.788;21.582;2023-07-28T07:41:18;99209.23;;;15.64;88.94
51530;BME280;37613;51.788;21.582;2023-07-28T07:45:22;99211.70;;;15.59;89.70
51530;BME280;37613;51.788;21.582;2023-07-28T07:49:24;99203.27;;;15.47;90.27
51530;BME280;37613;51.788;21.582;2023-07-28T07:53:26;99205.58;;;15.52;90.04
51530;BME280;37613;51.788;21.582;2023-07-28T07:57:29;99197.69;;;15.57;90.83
51530;BME280;37613;51.788;21.582;2023-07-28T08:01:31;99187.20;;;15.65;91.63
51530;BME280;37613;51.788;21.582;2023-07-28T08:05:33;99189.30;;;15.90;92.56
51530;BME280;37613;51.788;21.582;2023-07-28T08:09:35;99185.71;;;16.23;92.43
51530;BME280;37613;51.788;21.582;2023-07-28T08:13:39;99192.89;;;16.56;92.60
51530;BME280;37613;51.788;21.582;2023-07-28T08:17:41;99184.55;;;16.67;93.09
51530;BME280;37613;51.788;21.582;2023-07-28T08:21:43;99185.41;;;16.72;92.56
51530;BME280;37613;51.788;21.582;2023-07-28T08:25:45;99174.19;;;16.79;92.31
51530;BME280;37613;51.788;21.582;2023-07-28T08:29:47;99177.02;;;16.87;92.41
51530;BME280;37613;51.788;21.582;2023-07-28T08:33:50;99175.30;;;16.98;92.56
51530;BME280;37613;51.788;21.582;2023-07-28T08:37:51;99175.71;;;17.16;92.60
51530;BME280;37613;51.788;21.582;2023-07-28T08:42:01;99176.89;;;17.38;92.72
51530;BME280;37613;51.788;21.582;2023-07-28T08:46:03;99173.95;;;17.67;92.76
51530;BME280;37613;51.788;21.582;2023-07-28T08:50:06;99166.58;;;17.92;92.73
51530;BME280;37613;51.788;21.582;2023-07-28T08:54:11;99165.65;;;18.19;92.47
51530;BME280;37613;51.788;21.582;2023-07-28T08:58:17;99160.54;;;18.39;92.12
51530;BME280;37613;51.788;21.582;2023-07-28T09:02:23;99167.81;;;18.50;91.31
51530;BME280;37613;51.788;21.582;2023-07-28T09:06:29;99178.05;;;18.46;90.52
51530;BME280;37613;51.788;21.582;2023-07-28T09:10:43;99170.92;;;18.31;90.48
51530;BME280;37613;51.788;21.582;2023-07-28T09:14:46;99165.28;;;18.27;90.72
51530;BME280;37613;51.788;21.582;2023-07-28T09:18:48;99166.50;;;18.20;90.33
51530;BME280;37613;51.788;21.582;2023-07-28T09:22:51;99167.95;;;18.11;90.30
51530;BME280;37613;51.788;21.582;2023-07-28T09:26:53;99169.48;;;18.04;90.30
51530;BME280;37613;51.788;21.582;2023-07-28T09:30:56;99168.56;;;17.96;90.17
51530;BME280;37613;51.788;21.582;2023-07-28T09:35:12;99167.00;;;17.90;90.21
51530;BME280;37613;51.788;21.582;2023-07-28T09:39:14;99166.13;;;17.84;90.02
51530;BME280;37613;51.788;21.582;2023-07-28T09:43:17;99166.30;;;17.85;90.27
51530;BME280;37613;51.788;21.582;2023-07-28T09:47:20;99160.04;;;17.87;90.20
51530;BME280;37613;51.788;21.582;2023-07-28T09:51:22;99155.89;;;17.85;90.04
51530;BME280;37613;51.788;21.582;2023-07-28T09:55:28;99152.66;;;17.95;90.28
51530;BME280;37613;51.788;21.582;2023-07-28T09:59:38;99152.85;;;18.13;90.33
51530;BME280;37613;51.788;21.582;2023-07-28T10:03:41;99150.05;;;18.39;90.43
51530;BME280;37613;51.788;21.582;2023-07-28T10:07:44;99149.08;;;18.74;90.62
51530;BME280;37613;51.788;21.582;2023-07-28T10:11:48;99142.77;;;19.15;90.43
51530;BME280;37613;51.788;21.582;2023-07-28T10:15:50;99133.36;;;19.46;89.31
51530;BME280;37613;51.788;21.582;2023-07-28T10:19:53;99132.98;;;19.58;88.53
51530;BME280;37613;51.788;21.582;2023-07-28T10:23:57;99136.75;;;19.76;88.64
51530;BME280;37613;51.788;21.582;2023-07-28T10:27:59;99141.48;;;19.88;87.88
51530;BME280;37613;51.788;21.582;2023-07-28T10:32:01;99141.24;;;19.95;87.80
51530;BME280;37613;51.788;21.582;2023-07-28T10:44:29;99138.79;;;19.51;85.91
51530;BME280;37613;51.788;21.582;2023-07-28T10:48:31;99130.39;;;19.28;86.00
51530;BME280;37613;51.788;21.582;2023-07-28T10:52:33;99115.27;;;19.10;86.01
51530;BME280;37613;51.788;21.582;2023-07-28T10:56:35;99114.58;;;19.04;86.38
51530;BME280;37613;51.788;21.582;2023-07-28T11:00:37;99119.19;;;19.00;86.38
51530;BME280;37613;51.788;21.582;2023-07-28T11:04:46;99118.17;;;18.87;86.37
51530;BME280;37613;51.788;21.582;2023-07-28T11:08:51;99113.41;;;18.79;86.62
51530;BME280;37613;51.788;21.582;2023-07-28T11:12:56;99112.13;;;18.71;87.08
51530;BME280;37613;51.788;21.582;2023-07-28T11:16:59;99109.84;;;18.60;87.26
51530;BME280;37613;51.788;21.582;2023-07-28T11:21:01;99103.91;;;18.47;87.73
51530;BME280;37613;51.788;21.582;2023-07-28T11:25:06;99121.73;;;18.36;87.82
51530;BME280;37613;51.788;21.582;2023-07-28T11:29:12;99127.02;;;18.23;87.78
51530;BME280;37613;51.788;21.582;2023-07-28T11:33:14;99121.33;;;18.10;88.39
51530;BME280;37613;51.788;21.582;2023-07-28T11:37:16;99122.94;;;18.02;88.57
51530;BME280;37613;51.788;21.582;2023-07-28T11:41:20;99098.73;;;18.00;88.79
51530;BME280;37613;51.788;21.582;2023-07-28T11:45:22;99095.23;;;17.99;89.79
51530;BME280;37613;51.788;21.582;2023-07-28T11:49:25;99102.64;;;17.94;90.19
51530;BME280;37613;51.788;21.582;2023-07-28T11:53:27;99125.25;;;17.89;90.71
51530;BME280;37613;51.788;21.582;2023-07-28T11:57:34;99139.92;;;17.84;90.64
51530;BME280;37613;51.788;21.582;2023-07-28T12:02:00;99126.69;;;17.88;90.89
51530;BME280;37613;51.788;21.582;2023-07-28T12:06:05;99128.59;;;18.05;91.72
51530;BME280;37613;51.788;21.582;2023-07-28T12:10:09;99126.32;;;18.14;91.47
51530;BME280;37613;51.788;21.582;2023-07-28T12:14:11;99127.95;;;18.17;91.68
51530;BME280;37613;51.788;21.582;2023-07-28T12:18:15;99134.33;;;18.15;91.95
51530;BME280;37613;51.788;21.582;2023-07-28T12:22:18;99127.54;;;18.14;92.63
51530;BME280;37613;51.788;21.582;2023-07-28T12:26:20;99123.27;;;18.17;92.76
51530;BME280;37613;51.788;21.582;2023-07-28T12:30:22;99124.36;;;18.26;92.74
51530;BME280;37613;51.788;21.582;2023-07-28T12:34:24;99125.85;;;18.34;92.69
51530;BME280;37613;51.788;21.582;2023-07-28T12:38:26;99131.66;;;18.41;92.75
51530;BME280;37613;51.788;21.582;2023-07-28T12:42:32;99137.15;;;18.54;92.92
51530;BME280;37613;51.788;21.582;2023-07-28T12:46:34;99132.89;;;18.75;93.27
51530;BME280;37613;51.788;21.582;2023-07-28T12:50:36;99126.67;;;18.96;93.67
51530;BME280;37613;51.788;21.582;2023-07-28T12:54:41;99127.65;;;19.20;93.45
51530;BME280;37613;51.788;21.582;2023-07-28T12:58:44;99126.87;;;19.38;93.27
51530;BME280;37613;51.788;21.582;2023-07-28T13:02:46;99120.92;;;19.67;93.62
51530;BME280;37613;51.788;21.582;2023-07-28T13:06:49;99126.80;;;20.08;93.50
51530;BME280;37613;51.788;21.582;2023-07-28T13:10:51;99129.34;;;20.23;92.53
51530;BME280;37613;51.788;21.582;2023-07-28T13:14:53;99129.80;;;20.23;92.21
51530;BME280;37613;51.788;21.582;2023-07-28T13:18:55;99126.78;;;20.25;91.98
51530;BME280;37613;51.788;21.582;2023-07-28T13:22:58;99127.49;;;20.22;91.71
51530;BME280;37613;51.788;21.582;2023-07-28T13:27:03;99131.01;;;20.19;91.42
51530;BME280;37613;51.788;21.582;2023-07-28T13:31:05;99134.20;;;20.07;91.22
51530;BME280;37613;51.788;21.582;2023-07-28T13:35:07;99131.89;;;20.00;91.39
51530;BME280;37613;51.788;21.582;2023-07-28T13:39:09;99134.14;;;20.07;91.80
51530;BME280;37613;51.788;21.582;2023-07-28T13:43:11;99133.75;;;20.24;91.78
51530;BME280;37613;51.788;21.582;2023-07-28T13:47:13;99135.39;;;20.36;91.59
51530;BME280;37613;51.788;21.582;2023-07-28T13:51:16;99129.59;;;20.40;91.46
51530;BME280;37613;51.788;21.582;2023-07-28T13:55:18;99130.17;;;20.41;91.50
51530;BME280;37613;51.788;21.582;2023-07-28T13:59:23;99125.63;;;20.37;91.58
51530;BME280;37613;51.788;21.582;2023-07-28T14:03:25;99123.73;;;20.43;91.71
51530;BME280;37613;51.788;21.582;2023-07-28T14:07:27;99123.70;;;20.50;91.55
51530;BME280;37613;51.788;21.582;2023-07-28T14:11:29;99124.84;;;20.56;91.10
51530;BME280;37613;51.788;21.582;2023-07-28T14:15:31;99124.94;;;20.59;90.91
51530;BME280;37613;51.788;21.582;2023-07-28T14:19:34;99119.03;;;20.65;90.79
51530;BME280;37613;51.788;21.582;2023-07-28T14:23:35;99115.73;;;20.67;90.47
51530;BME280;37613;51.788;21.582;2023-07-28T14:27:38;99113.24;;;20.56;89.11
51530;BME280;37613;51.788;21.582;2023-07-28T14:31:40;99109.44;;;20.50;89.58
51530;BME280;37613;51.788;21.582;2023-07-28T14:35:47;99108.86;;;20.49;89.70
51530;BME280;37613;51.788;21.582;2023-07-28T14:39:49;99106.38;;;20.50;89.59
51530;BME280;37613;51.788;21.582;2023-07-28T14:43:51;99101.55;;;20.53;89.64
51530;BME280;37613;51.788;21.582;2023-07-28T14:47:53;99099.48;;;20.58;89.55
51530;BME280;37613;51.788;21.582;2023-07-28T14:51:55;99097.14;;;20.71;89.74
51530;BME280;37613;51.788;21.582;2023-07-28T14:55:57;99093.68;;;20.88;89.58
51530;BME280;37613;51.788;21.582;2023-07-28T15:00:00;99091.15;;;21.09;89.39
51530;BME280;37613;51.788;21.582;2023-07-28T15:04:02;99079.45;;;21.10;88.09
51530;BME280;37613;51.788;21.582;2023-07-28T15:08:05;99083.80;;;21.15;87.89
51530;BME280;37613;51.788;21.582;2023-07-28T15:12:08;99088.25;;;21.19;87.65
51530;BME280;37613;51.788;21.582;2023-07-28T15:16:10;99089.77;;;21.26;88.13
51530;BME280;37613;51.788;21.582;2023-07-28T15:20:12;99094.02;;;21.26;87.33
51530;BME280;37613;51.788;21.582;2023-07-28T15:24:14;99099.46;;;21.20;87.22
51530;BME280;37613;51.788;21.582;2023-07-28T15:28:16;99103.21;;;21.17;87.26
51530;BME280;37613;51.788;21.582;2023-07-28T15:32:19;99104.78;;;21.20;87.30
51530;BME280;37613;51.788;21.582;2023-07-28T15:36:21;99100.83;;;21.27;87.24
51530;BME280;37613;51.788;21.582;2023-07-28T15:40:23;99105.91;;;21.26;86.91
51530;BME280;37613;51.788;21.582;2023-07-28T15:44:25;99106.39;;;21.13;86.73
51530;BME280;37613;51.788;21.582;2023-07-28T15:48:34;99106.77;;;21.11;87.00
51530;BME280;37613;51.788;21.582;2023-07-28T15:52:36;99107.48;;;21.15;87.14
51530;BME280;37613;51.788;21.582;2023-07-28T15:56:41;99111.40;;;21.13;86.95
51530;BME280;37613;51.788;21.582;2023-07-28T16:00:43;99110.67;;;21.08;87.05
51530;BME280;37613;51.788;21.582;2023-07-28T16:04:46;99117.21;;;21.03;87.05
51530;BME280;37613;51.788;21.582;2023-07-28T16:08:48;99119.13;;;21.05;87.33
51530;BME280;37613;51.788;21.582;2023-07-28T16:12:50;99110.95;;;21.10;87.37
51530;BME280;37613;51.788;21.582;2023-07-28T16:16:52;99113.23;;;21.13;87.35
51530;BME280;37613;51.788;21.582;2023-07-28T16:20:53;99117.27;;;21.17;87.40
51530;BME280;37613;51.788;21.582;2023-07-28T16:24:56;99113.95;;;21.18;87.14
51530;BME280;37613;51.788;21.582;2023-07-28T16:28:58;99115.13;;;21.14;87.29
51530;BME280;37613;51.788;21.582;2023-07-28T16:33:00;99119.30;;;21.11;87.40
51530;BME280;37613;51.788;21.582;2023-07-28T16:37:02;99118.16;;;21.14;87.35
51530;BME280;37613;51.788;21.582;2023-07-28T16:41:05;99114.88;;;21.26;87.42
51530;BME280;37613;51.788;21.582;2023-07-28T16:45:07;99113.33;;;21.32;87.05
51530;BME280;37613;51.788;21.582;2023-07-28T16:49:09;99112.23;;;21.34;86.88
51530;BME280;37613;51.788;21.582;2023-07-28T16:53:11;99112.13;;;21.31;86.54
51530;BME280;37613;51.788;21.582;2023-07-28T16:57:13;99123.72;;;21.22;86.65
51530;BME280;37613;51.788;21.582;2023-07-28T17:01:15;99125.42;;;21.11;86.70
51530;BME280;37613;51.788;21.582;2023-07-28T17:05:17;99121.09;;;20.99;86.69
51530;BME280;37613;51.788;21.582;2023-07-28T17:09:19;99111.73;;;20.86;86.71
51530;BME280;37613;51.788;21.582;2023-07-28T17:13:21;99107.23;;;20.74;86.74
51530;BME280;37613;51.788;21.582;2023-07-28T17:17:23;99108.83;;;20.62;86.96
51530;BME280;37613;51.788;21.582;2023-07-28T17:21:25;99103.90;;;20.53;87.12
51530;BME280;37613;51.788;21.582;2023-07-28T17:25:28;99096.33;;;20.45;87.20
51530;BME280;37613;51.788;21.582;2023-07-28T17:29:30;99097.38;;;20.40;87.63
51530;BME280;37613;51.788;21.582;2023-07-28T17:33:32;99090.95;;;20.40;87.87
51530;BME280;37613;51.788;21.582;2023-07-28T17:37:34;99100.30;;;20.44;87.95
51530;BME280;37613;51.788;21.582;2023-07-28T17:41:36;99103.30;;;20.46;88.00
51530;BME280;37613;51.788;21.582;2023-07-28T17:45:39;99112.59;;;20.44;88.26
51530;BME280;37613;51.788;21.582;2023-07-28T17:49:41;99115.05;;;20.40;88.24
51530;BME280;37613;51.788;21.582;2023-07-28T17:53:45;99116.31;;;20.36;88.53
51530;BME280;37613;51.788;21.582;2023-07-28T17:57:47;99115.61;;;20.31;88.73
51530;BME280;37613;51.788;21.582;2023-07-28T18:01:49;99121.11;;;20.26;88.67
51530;BME280;37613;51.788;21.582;2023-07-28T18:05:52;99136.91;;;20.21;89.11
51530;BME280;37613;51.788;21.582;2023-07-28T18:09:55;99145.67;;;20.13;89.14
51530;BME280;37613;51.788;21.582;2023-07-28T18:13:57;99150.25;;;20.06;88.98
51530;BME280;37613;51.788;21.582;2023-07-28T18:18:00;99147.47;;;19.98;89.12
51530;BME280;37613;51.788;21.582;2023-07-28T18:22:03;99155.96;;;19.91;89.23
51530;BME280;37613;51.788;21.582;2023-07-28T18:26:05;99157.92;;;19.83;89.37
51530;BME280;37613;51.788;21.582;2023-07-28T18:30:08;99157.19;;;19.76;89.65
51530;BME280;37613;51.788;21.582;2023-07-28T18:34:10;99154.73;;;19.69;90.85
51530;BME280;37613;51.788;21.582;2023-07-28T18:38:12;99158.81;;;19.64;93.27
51530;BME280;37613;51.788;21.582;2023-07-28T18:42:15;99159.52;;;19.56;92.41
51530;BME280;37613;51.788;21.582;2023-07-28T18:46:17;99162.33;;;19.48;93.00
51530;BME280;37613;51.788;21.582;2023-07-28T18:50:20;99164.34;;;19.40;92.24
51530;BME280;37613;51.788;21.582;2023-07-28T18:54:22;99165.72;;;19.31;92.60
51530;BME280;37613;51.788;21.582;2023-07-28T18:58:25;99170.30;;;19.21;92.64
51530;BME280;37613;51.788;21.582;2023-07-28T19:02:27;99170.08;;;19.11;92.55
51530;BME280;37613;51.788;21.582;2023-07-28T19:06:30;99174.04;;;19.01;93.17
51530;BME280;37613;51.788;21.582;2023-07-28T19:10:32;99173.38;;;18.91;93.81
51530;BME280;37613;51.788;21.582;2023-07-28T19:14:36;99174.02;;;18.81;94.52
51530;BME280;37613;51.788;21.582;2023-07-28T19:18:39;99179.06;;;18.72;94.89
51530;BME280;37613;51.788;21.582;2023-07-28T19:22:45;99176.16;;;18.63;94.85
51530;BME280;37613;51.788;21.582;2023-07-28T19:26:48;99183.95;;;18.54;95.43
51530;BME280;37613;51.788;21.582;2023-07-28T19:30:51;99194.38;;;18.45;95.75
51530;BME280;37613;51.788;21.582;2023-07-28T19:34:54;99196.66;;;18.36;96.83
51530;BME280;37613;51.788;21.582;2023-07-28T19:38:56;99196.48;;;18.27;97.18
51530;BME280;37613;51.788;21.582;2023-07-28T19:42:59;99198.13;;;18.19;96.12
51530;BME280;37613;51.788;21.582;2023-07-28T19:47:02;99201.94;;;18.11;96.41
51530;BME280;37613;51.788;21.582;2023-07-28T19:51:05;99203.42;;;18.03;96.30
51530;BME280;37613;51.788;21.582;2023-07-28T19:55:09;99204.77;;;17.96;96.27
51530;BME280;37613;51.788;21.582;2023-07-28T19:59:11;99210.42;;;17.88;96.89
51530;BME280;37613;51.788;21.582;2023-07-28T20:03:15;99220.39;;;17.80;96.85
51530;BME280;37613;51.788;21.582;2023-07-28T20:07:20;99223.43;;;17.72;97.17
51530;BME280;37613;51.788;21.582;2023-07-28T20:11:25;99224.71;;;17.66;97.11
51530;BME280;37613;51.788;21.582;2023-07-28T20:15:27;99228.82;;;17.60;97.13
51530;BME280;37613;51.788;21.582;2023-07-28T20:19:30;99234.45;;;17.54;97.67
51530;BME280;37613;51.788;21.582;2023-07-28T20:23:33;99237.96;;;17.48;98.17
51530;BME280;37613;51.788;21.582;2023-07-28T20:27:44;99238.36;;;17.45;99.04
51530;BME280;37613;51.788;21.582;2023-07-28T20:31:47;99233.27;;;17.41;99.49
51530;BME280;37613;51.788;21.582;2023-07-28T20:35:50;99233.27;;;17.37;98.88
51530;BME280;37613;51.788;21.582;2023-07-28T20:39:55;99231.95;;;17.34;98.72
51530;BME280;37613;51.788;21.582;2023-07-28T20:43:58;99233.80;;;17.30;98.48
51530;BME280;37613;51.788;21.582;2023-07-28T20:48:00;99234.59;;;17.25;98.46
51530;BME280;37613;51.788;21.582;2023-07-28T20:52:03;99234.86;;;17.18;98.51
51530;BME280;37613;51.788;21.582;2023-07-28T20:56:06;99240.52;;;17.13;98.56
51530;BME280;37613;51.788;21.582;2023-07-28T21:00:09;99238.45;;;17.07;98.47
51530;BME280;37613;51.788;21.582;2023-07-28T21:04:11;99242.06;;;17.01;98.42
51530;BME280;37613;51.788;21.582;2023-07-28T21:08:13;99242.11;;;16.93;98.57
51530;BME280;37613;51.788;21.582;2023-07-28T21:12:15;99238.05;;;16.87;98.79
51530;BME280;37613;51.788;21.582;2023-07-28T21:16:18;99242.92;;;16.82;98.90
51530;BME280;37613;51.788;21.582;2023-07-28T21:20:20;99247.55;;;16.76;98.74
51530;BME280;37613;51.788;21.582;2023-07-28T21:24:25;99256.35;;;16.71;98.99